sensor_id;sensor_type;location;lat;lon;timestamp;P1;durP1;ratioP1;P2;durP2;ratioP2
9661;SDS011;24982;52.344;12.990;2023-09-19T00:02:19;3.03;;;1.90;;
9661;SDS011;24982;52.344;12.990;2023-09-19T00:05:21;2.28;;;2.03;;
9661;SDS011;24982;52.344;12.990;2023-09-19T00:08:24;2.42;;;2.00;;
9661;SDS011;24982;52.344;12.990;2023-09-19T00:11:27;2.95;;;1.75;;
9661;SDS011;24982;52.344;12.990;2023-09-19T00:14:29;1.98;;;1.70;;
9661;SDS011;24982;52.344;12.990;2023-09-19T00:17:34;2.35;;;1.90;;
9661;SDS011;24982;52.344;12.990;2023-09-19T00:20:37;2.17;;;1.95;;
9661;SDS011;24982;52.344;12.990;2023-09-19T00:23:40;3.03;;;2.03;;
9661;SDS011;24982;52.344;12.990;2023-09-19T00:26:43;1.80;;;1.67;;
9661;SDS011;24982;52.344;12.990;2023-09-19T00:38:31;4.07;;;2.00;;
9661;SDS011;24982;52.344;12.990;2023-09-19T00:41:34;1.85;;;1.75;;
9661;SDS011;24982;52.344;12.990;2023-09-19T00:44:38;3.15;;;1.70;;
9661;SDS011;24982;52.344;12.990;2023-09-19T00:47:40;2.90;;;1.40;;
9661;SDS011;24982;52.344;12.990;2023-09-19T00:50:44;4.95;;;1.52;;
9661;SDS011;24982;52.344;12.990;2023-09-19T00:53:49;3.83;;;2.00;;
9661;SDS011;24982;52.344;12.990;2023-09-19T00:56:51;1.92;;;1.70;;
9661;SDS011;24982;52.344;12.990;2023-09-19T00:59:56;1.90;;;1.73;;
9661;SDS011;24982;52.344;12.990;2023-09-19T01:02:58;1.80;;;1.70;;
9661;SDS011;24982;52.344;12.990;2023-09-19T01:06:01;1.95;;;1.58;;
9661;SDS011;24982;52.344;12.990;2023-09-19T01:09:03;2.25;;;1.58;;
9661;SDS011;24982;52.344;12.990;2023-09-19T01:12:06;3.10;;;2.28;;
9661;SDS011;24982;52.344;12.990;2023-09-19T01:15:14;2.33;;;1.30;;
9661;SDS011;24982;52.344;12.990;2023-09-19T01:18:26;2.15;;;1.80;;
9661;SDS011;24982;52.344;12.990;2023-09-19T01:21:44;2.13;;;1.70;;
9661;SDS011;24982;52.344;12.990;2023-09-19T01:25:04;2.05;;;1.70;;
9661;SDS011;24982;52.344;12.990;2023-09-19T01:28:27;2.85;;;1.70;;
9661;SDS011;24982;52.344;12.990;2023-09-19T01:31:38;1.92;;;1.60;;
9661;SDS011;24982;52.344;12.990;2023-09-19T01:34:44;3.45;;;1.75;;
9661;SDS011;24982;52.344;12.990;2023-09-19T01:37:48;2.13;;;1.92;;
9661;SDS011;24982;52.344;12.990;2023-09-19T01:40:51;2.15;;;1.77;;
9661;SDS011;24982;52.344;12.990;2023-09-19T01:44:00;2.72;;;2.10;;
9661;SDS011;24982;52.344;12.990;2023-09-19T01:47:10;2.08;;;1.75;;
9661;SDS011;24982;52.344;12.990;2023-09-19T01:50:21;2.20;;;1.85;;
9661;SDS011;24982;52.344;12.990;2023-09-19T01:53:33;5.25;;;1.98;;
9661;SDS011;24982;52.344;12.990;2023-09-19T01:56:38;3.78;;;1.85;;
9661;SDS011;24982;52.344;12.990;2023-09-19T01:59:48;2.10;;;1.60;;
9661;SDS011;24982;52.344;12.990;2023-09-19T02:02:54;2.00;;;1.77;;
9661;SDS011;24982;52.344;12.990;2023-09-19T02:06:00;4.07;;;1.88;;
9661;SDS011;24982;52.344;12.990;2023-09-19T02:09:03;1.77;;;1.65;;
9661;SDS011;24982;52.344;12.990;2023-09-19T02:12:06;1.88;;;1.67;;
9661;SDS011;24982;52.344;12.990;2023-09-19T02:15:08;2.58;;;1.73;;
9661;SDS011;24982;52.344;12.990;2023-09-19T02:18:12;1.80;;;1.70;;
9661;SDS011;24982;52.344;12.990;2023-09-19T02:21:14;2.13;;;1.70;;
9661;SDS011;24982;52.344;12.990;2023-09-19T02:24:17;2.67;;;1.80;;
9661;SDS011;24982;52.344;12.990;2023-09-19T02:27:20;1.90;;;1.80;;
9661;SDS011;24982;52.344;12.990;2023-09-19T02:30:22;4.07;;;1.60;;
9661;SDS011;24982;52.344;12.990;2023-09-19T02:33:27;2.47;;;1.73;;
9661;SDS011;24982;52.344;12.990;2023-09-19T02:36:32;2.30;;;1.42;;
9661;SDS011;24982;52.344;12.990;2023-09-19T02:39:34;2.08;;;1.80;;
9661;SDS011;24982;52.344;12.990;2023-09-19T02:42:37;2.08;;;1.90;;
9661;SDS011;24982;52.344;12.990;2023-09-19T02:45:39;1.85;;;1.70;;
9661;SDS011;24982;52.344;12.990;2023-09-19T02:48:42;1.70;;;1.60;;
9661;SDS011;24982;52.344;12.990;2023-09-19T02:51:45;3.05;;;1.75;;
9661;SDS011;24982;52.344;12.990;2023-09-19T02:54:47;2.33;;;1.90;;
9661;SDS011;24982;52.344;12.990;2023-09-19T02:57:51;1.95;;;1.85;;
9661;SDS011;24982;52.344;12.990;2023-09-19T03:00:55;3.65;;;1.90;;
9661;SDS011;24982;52.344;12.990;2023-09-19T03:03:59;1.90;;;1.70;;
9661;SDS011;24982;52.344;12.990;2023-09-19T03:07:03;1.85;;;1.70;;
9661;SDS011;24982;52.344;12.990;2023-09-19T03:10:06;1.90;;;1.70;;
9661;SDS011;24982;52.344;12.990;2023-09-19T03:13:09;3.80;;;1.65;;
9661;SDS011;24982;52.344;12.990;2023-09-19T03:16:12;1.45;;;1.45;;
9661;SDS011;24982;52.344;12.990;2023-09-19T03:19:17;1.63;;;1.50;;
9661;SDS011;24982;52.344;12.990;2023-09-19T03:22:22;2.42;;;1.80;;
9661;SDS011;24982;52.344;12.990;2023-09-19T03:25:25;2.38;;;1.48;;
9661;SDS011;24982;52.344;12.990;2023-09-19T03:28:29;1.60;;;1.40;;
9661;SDS011;24982;52.344;12.990;2023-09-19T03:31:32;2.72;;;1.70;;
9661;SDS011;24982;52.344;12.990;2023-09-19T03:34:39;3.28;;;1.50;;
9661;SDS011;24982;52.344;12.990;2023-09-19T03:37:43;3.78;;;1.70;;
9661;SDS011;24982;52.344;12.990;2023-09-19T03:40:46;1.60;;;1.50;;
9661;SDS011;24982;52.344;12.990;2023-09-19T03:43:49;2.47;;;1.50;;
9661;SDS011;24982;52.344;12.990;2023-09-19T03:46:51;2.20;;;1.50;;
9661;SDS011;24982;52.344;12.990;2023-09-19T03:49:54;1.40;;;1.40;;
9661;SDS011;24982;52.344;12.990;2023-09-19T03:52:56;1.85;;;1.30;;
9661;SDS011;24982;52.344;12.990;2023-09-19T03:55:58;2.95;;;1.58;;
9661;SDS011;24982;52.344;12.990;2023-09-19T03:59:03;1.65;;;1.30;;
9661;SDS011;24982;52.344;12.990;2023-09-19T04:02:05;2.70;;;1.35;;
9661;SDS011;24982;52.344;12.990;2023-09-19T04:05:13;2.20;;;1.40;;
9661;SDS011;24982;52.344;12.990;2023-09-19T04:08:15;2.30;;;1.60;;
9661;SDS011;24982;52.344;12.990;2023-09-19T04:11:17;1.70;;;1.20;;
9661;SDS011;24982;52.344;12.990;2023-09-19T04:14:20;1.25;;;1.20;;
9661;SDS011;24982;52.344;12.990;2023-09-19T04:17:23;1.92;;;1.60;;
9661;SDS011;24982;52.344;12.990;2023-09-19T04:20:26;1.30;;;1.20;;
9661;SDS011;24982;52.344;12.990;2023-09-19T04:23:28;2.08;;;1.30;;
9661;SDS011;24982;52.344;12.990;2023-09-19T04:26:31;3.75;;;1.77;;
9661;SDS011;24982;52.344;12.990;2023-09-19T04:29:33;2.88;;;1.30;;
9661;SDS011;24982;52.344;12.990;2023-09-19T04:32:35;2.47;;;1.60;;
9661;SDS011;24982;52.344;12.990;2023-09-19T04:35:39;2.22;;;1.45;;
9661;SDS011;24982;52.344;12.990;2023-09-19T04:38:42;1.40;;;1.30;;
9661;SDS011;24982;52.344;12.990;2023-09-19T04:41:44;1.60;;;1.55;;
9661;SDS011;24982;52.344;12.990;2023-09-19T04:44:48;2.03;;;1.75;;
9661;SDS011;24982;52.344;12.990;2023-09-19T04:47:50;3.22;;;1.60;;
9661;SDS011;24982;52.344;12.990;2023-09-19T04:50:53;1.38;;;1.30;;
9661;SDS011;24982;52.344;12.990;2023-09-19T04:53:56;3.08;;;1.58;;
9661;SDS011;24982;52.344;12.990;2023-09-19T04:56:58;1.90;;;1.48;;
9661;SDS011;24982;52.344;12.990;2023-09-19T05:00:00;1.85;;;1.55;;
9661;SDS011;24982;52.344;12.990;2023-09-19T05:03:02;1.60;;;1.50;;
9661;SDS011;24982;52.344;12.990;2023-09-19T05:06:08;4.45;;;1.80;;
9661;SDS011;24982;52.344;12.990;2023-09-19T05:09:09;2.05;;;1.63;;
9661;SDS011;24982;52.344;12.990;2023-09-19T05:12:11;2.53;;;1.67;;
9661;SDS011;24982;52.344;12.990;2023-09-19T05:15:13;3.20;;;1.67;;
9661;SDS011;24982;52.344;12.990;2023-09-19T05:18:17;2.67;;;1.73;;
9661;SDS011;24982;52.344;12.990;2023-09-19T05:21:20;2.35;;;1.73;;
9661;SDS011;24982;52.344;12.990;2023-09-19T05:24:24;2.90;;;1.92;;
9661;SDS011;24982;52.344;12.990;2023-09-19T05:27:26;2.40;;;1.73;;
9661;SDS011;24982;52.344;12.990;2023-09-19T05:30:29;5.10;;;2.22;;
9661;SDS011;24982;52.344;12.990;2023-09-19T05:33:31;4.60;;;1.90;;
9661;SDS011;24982;52.344;12.990;2023-09-19T05:36:34;2.20;;;1.88;;
9661;SDS011;24982;52.344;12.990;2023-09-19T05:39:36;3.00;;;1.70;;
9661;SDS011;24982;52.344;12.990;2023-09-19T05:42:38;2.88;;;1.83;;
9661;SDS011;24982;52.344;12.990;2023-09-19T05:45:41;4.45;;;1.67;;
9661;SDS011;24982;52.344;12.990;2023-09-19T05:48:43;4.15;;;1.50;;
9661;SDS011;24982;52.344;12.990;2023-09-19T05:51:49;3.00;;;1.65;;
9661;SDS011;24982;52.344;12.990;2023-09-19T05:54:53;5.07;;;1.83;;
9661;SDS011;24982;52.344;12.990;2023-09-19T05:57:56;2.38;;;1.70;;
9661;SDS011;24982;52.344;12.990;2023-09-19T06:00:58;7.05;;;2.10;;
9661;SDS011;24982;52.344;12.990;2023-09-19T06:04:00;2.42;;;1.90;;
9661;SDS011;24982;52.344;12.990;2023-09-19T06:07:03;3.75;;;2.15;;
9661;SDS011;24982;52.344;12.990;2023-09-19T06:10:06;1.77;;;1.67;;
9661;SDS011;24982;52.344;12.990;2023-09-19T06:13:11;2.50;;;1.90;;
9661;SDS011;24982;52.344;12.990;2023-09-19T06:16:13;1.90;;;1.70;;
9661;SDS011;24982;52.344;12.990;2023-09-19T06:19:14;2.95;;;2.05;;
9661;SDS011;24982;52.344;12.990;2023-09-19T06:22:18;1.98;;;1.88;;
9661;SDS011;24982;52.344;12.990;2023-09-19T06:25:20;3.65;;;1.52;;
9661;SDS011;24982;52.344;12.990;2023-09-19T06:28:23;2.80;;;1.80;;
9661;SDS011;24982;52.344;12.990;2023-09-19T06:31:25;4.97;;;2.20;;
9661;SDS011;24982;52.344;12.990;2023-09-19T06:34:27;3.70;;;2.00;;
9661;SDS011;24982;52.344;12.990;2023-09-19T06:37:31;3.28;;;2.00;;
9661;SDS011;24982;52.344;12.990;2023-09-19T06:40:33;3.40;;;2.20;;
9661;SDS011;24982;52.344;12.990;2023-09-19T06:43:35;7.95;;;2.20;;
9661;SDS011;24982;52.344;12.990;2023-09-19T06:46:37;3.67;;;1.85;;
9661;SDS011;24982;52.344;12.990;2023-09-19T06:49:40;3.30;;;1.92;;
9661;SDS011;24982;52.344;12.990;2023-09-19T06:52:45;3.83;;;2.17;;
9661;SDS011;24982;52.344;12.990;2023-09-19T06:55:50;3.78;;;2.22;;
9661;SDS011;24982;52.344;12.990;2023-09-19T06:58:52;6.20;;;2.20;;
9661;SDS011;24982;52.344;12.990;2023-09-19T07:01:54;2.38;;;2.00;;
9661;SDS011;24982;52.344;12.990;2023-09-19T07:04:56;5.78;;;2.15;;
9661;SDS011;24982;52.344;12.990;2023-09-19T07:07:59;2.20;;;2.00;;
9661;SDS011;24982;52.344;12.990;2023-09-19T07:11:01;2.95;;;2.10;;
9661;SDS011;24982;52.344;12.990;2023-09-19T07:14:06;5.00;;;2.00;;
9661;SDS011;24982;52.344;12.990;2023-09-19T07:17:08;2.58;;;2.13;;
9661;SDS011;24982;52.344;12.990;2023-09-19T07:20:10;2.67;;;2.00;;
9661;SDS011;24982;52.344;12.990;2023-09-19T07:23:18;4.78;;;2.30;;
9661;SDS011;24982;52.344;12.990;2023-09-19T07:26:22;3.63;;;2.10;;
9661;SDS011;24982;52.344;12.990;2023-09-19T07:29:23;4.55;;;2.05;;
9661;SDS011;24982;52.344;12.990;2023-09-19T07:32:26;2.78;;;2.15;;
9661;SDS011;24982;52.344;12.990;2023-09-19T07:35:28;4.15;;;2.20;;
9661;SDS011;24982;52.344;12.990;2023-09-19T07:38:31;3.22;;;2.20;;
9661;SDS011;24982;52.344;12.990;2023-09-19T07:41:35;4.78;;;2.30;;
9661;SDS011;24982;52.344;12.990;2023-09-19T07:44:37;4.13;;;2.25;;
9661;SDS011;24982;52.344;12.990;2023-09-19T07:47:39;4.63;;;2.50;;
9661;SDS011;24982;52.344;12.990;2023-09-19T07:50:41;3.83;;;2.50;;
9661;SDS011;24982;52.344;12.990;2023-09-19T07:53:46;8.65;;;2.90;;
9661;SDS011;24982;52.344;12.990;2023-09-19T07:56:48;4.63;;;2.47;;
9661;SDS011;24982;52.344;12.990;2023-09-19T07:59:50;4.60;;;2.55;;
9661;SDS011;24982;52.344;12.990;2023-09-19T08:02:52;4.90;;;2.60;;
9661;SDS011;24982;52.344;12.990;2023-09-19T08:05:55;3.80;;;2.33;;
9661;SDS011;24982;52.344;12.990;2023-09-19T08:08:59;2.80;;;2.35;;
9661;SDS011;24982;52.344;12.990;2023-09-19T08:12:07;3.80;;;2.28;;
9661;SDS011;24982;52.344;12.990;2023-09-19T08:15:10;5.53;;;2.40;;
9661;SDS011;24982;52.344;12.990;2023-09-19T08:18:12;6.20;;;2.83;;
9661;SDS011;24982;52.344;12.990;2023-09-19T08:21:14;3.17;;;2.33;;
9661;SDS011;24982;52.344;12.990;2023-09-19T08:24:18;4.28;;;2.80;;
9661;SDS011;24982;52.344;12.990;2023-09-19T08:27:20;5.25;;;2.60;;
9661;SDS011;24982;52.344;12.990;2023-09-19T08:30:22;5.70;;;2.30;;
9661;SDS011;24982;52.344;12.990;2023-09-19T08:33:25;5.80;;;2.50;;
9661;SDS011;24982;52.344;12.990;2023-09-19T08:36:26;4.60;;;2.35;;
9661;SDS011;24982;52.344;12.990;2023-09-19T08:39:30;2.95;;;2.20;;
9661;SDS011;24982;52.344;12.990;2023-09-19T08:42:46;3.80;;;2.50;;
9661;SDS011;24982;52.344;12.990;2023-09-19T08:45:49;4.05;;;2.22;;
9661;SDS011;24982;52.344;12.990;2023-09-19T08:48:54;4.82;;;2.55;;
9661;SDS011;24982;52.344;12.990;2023-09-19T08:52:05;5.00;;;2.80;;
9661;SDS011;24982;52.344;12.990;2023-09-19T08:55:19;6.72;;;2.75;;
9661;SDS011;24982;52.344;12.990;2023-09-19T08:58:25;5.05;;;2.40;;
9661;SDS011;24982;52.344;12.990;2023-09-19T09:01:31;8.30;;;2.70;;
9661;SDS011;24982;52.344;12.990;2023-09-19T09:04:34;4.57;;;2.58;;
9661;SDS011;24982;52.344;12.990;2023-09-19T09:07:36;4.32;;;2.38;;
9661;SDS011;24982;52.344;12.990;2023-09-19T09:10:40;5.07;;;2.83;;
9661;SDS011;24982;52.344;12.990;2023-09-19T09:13:42;6.10;;;2.60;;
9661;SDS011;24982;52.344;12.990;2023-09-19T09:16:44;9.77;;;2.97;;
9661;SDS011;24982;52.344;12.990;2023-09-19T09:19:48;9.75;;;3.03;;
9661;SDS011;24982;52.344;12.990;2023-09-19T09:22:52;6.85;;;2.90;;
9661;SDS011;24982;52.344;12.990;2023-09-19T09:25:56;6.85;;;2.50;;
9661;SDS011;24982;52.344;12.990;2023-09-19T09:29:02;16.35;;;3.08;;
9661;SDS011;24982;52.344;12.990;2023-09-19T09:32:16;15.00;;;3.30;;
9661;SDS011;24982;52.344;12.990;2023-09-19T09:35:20;8.30;;;2.63;;
9661;SDS011;24982;52.344;12.990;2023-09-19T09:38:22;8.82;;;3.25;;
9661;SDS011;24982;52.344;12.990;2023-09-19T09:41:35;5.07;;;2.35;;
9661;SDS011;24982;52.344;12.990;2023-09-19T09:44:40;6.88;;;2.65;;
9661;SDS011;24982;52.344;12.990;2023-09-19T09:47:43;9.93;;;2.83;;
9661;SDS011;24982;52.344;12.990;2023-09-19T09:50:55;5.60;;;2.80;;
9661;SDS011;24982;52.344;12.990;2023-09-19T09:54:09;8.00;;;3.00;;
9661;SDS011;24982;52.344;12.990;2023-09-19T09:57:14;5.80;;;2.83;;
9661;SDS011;24982;52.344;12.990;2023-09-19T10:00:17;7.18;;;3.08;;
9661;SDS011;24982;52.344;12.990;2023-09-19T10:03:21;6.07;;;2.80;;
9661;SDS011;24982;52.344;12.990;2023-09-19T10:06:23;11.10;;;2.83;;
9661;SDS011;24982;52.344;12.990;2023-09-19T10:09:28;7.40;;;2.42;;
9661;SDS011;24982;52.344;12.990;2023-09-19T10:12:40;5.78;;;2.35;;
9661;SDS011;24982;52.344;12.990;2023-09-19T10:15:47;5.55;;;2.60;;
9661;SDS011;24982;52.344;12.990;2023-09-19T10:18:51;7.68;;;2.72;;
9661;SDS011;24982;52.344;12.990;2023-09-19T10:21:58;5.72;;;2.80;;
9661;SDS011;24982;52.344;12.990;2023-09-19T10:25:03;5.53;;;2.40;;
9661;SDS011;24982;52.344;12.990;2023-09-19T10:28:09;6.43;;;2.67;;
9661;SDS011;24982;52.344;12.990;2023-09-19T10:31:13;6.20;;;2.85;;
9661;SDS011;24982;52.344;12.990;2023-09-19T10:34:21;6.93;;;2.60;;
9661;SDS011;24982;52.344;12.990;2023-09-19T10:37:25;6.82;;;3.00;;
9661;SDS011;24982;52.344;12.990;2023-09-19T10:40:32;9.27;;;2.67;;
9661;SDS011;24982;52.344;12.990;2023-09-19T10:43:37;6.25;;;2.35;;
9661;SDS011;24982;52.344;12.990;2023-09-19T10:46:44;7.25;;;2.47;;
9661;SDS011;24982;52.344;12.990;2023-09-19T10:49:48;5.80;;;2.65;;
9661;SDS011;24982;52.344;12.990;2023-09-19T10:52:50;6.28;;;2.53;;
9661;SDS011;24982;52.344;12.990;2023-09-19T10:55:58;6.43;;;2.33;;
9661;SDS011;24982;52.344;12.990;2023-09-19T10:59:08;6.60;;;2.53;;
9661;SDS011;24982;52.344;12.990;2023-09-19T11:02:16;7.68;;;2.25;;
9661;SDS011;24982;52.344;12.990;2023-09-19T11:05:19;4.40;;;2.40;;
9661;SDS011;24982;52.344;12.990;2023-09-19T11:08:21;5.65;;;2.30;;
9661;SDS011;24982;52.344;12.990;2023-09-19T11:11:42;6.15;;;2.45;;
9661;SDS011;24982;52.344;12.990;2023-09-19T11:14:51;2.95;;;2.22;;
9661;SDS011;24982;52.344;12.990;2023-09-19T11:17:53;6.78;;;2.33;;
9661;SDS011;24982;52.344;12.990;2023-09-19T11:24:28;6.18;;;2.20;;
9661;SDS011;24982;52.344;12.990;2023-09-19T11:27:36;5.13;;;2.25;;
9661;SDS011;24982;52.344;12.990;2023-09-19T11:35:06;6.30;;;2.28;;
9661;SDS011;24982;52.344;12.990;2023-09-19T11:38:09;3.40;;;2.08;;
9661;SDS011;24982;52.344;12.990;2023-09-19T11:44:40;7.00;;;2.20;;
9661;SDS011;24982;52.344;12.990;2023-09-19T11:47:44;4.97;;;2.20;;
9661;SDS011;24982;52.344;12.990;2023-09-19T11:50:47;5.75;;;2.13;;
9661;SDS011;24982;52.344;12.990;2023-09-19T11:53:51;5.82;;;2.10;;
9661;SDS011;24982;52.344;12.990;2023-09-19T11:56:54;5.22;;;2.15;;
9661;SDS011;24982;52.344;12.990;2023-09-19T11:59:57;2.03;;;1.83;;
9661;SDS011;24982;52.344;12.990;2023-09-19T12:03:02;7.00;;;2.63;;
9661;SDS011;24982;52.344;12.990;2023-09-19T12:06:12;4.88;;;1.90;;
9661;SDS011;24982;52.344;12.990;2023-09-19T12:09:15;4.65;;;2.40;;
9661;SDS011;24982;52.344;12.990;2023-09-19T12:12:21;2.95;;;2.05;;
9661;SDS011;24982;52.344;12.990;2023-09-19T12:15:27;8.27;;;2.20;;
9661;SDS011;24982;52.344;12.990;2023-09-19T12:18:35;4.82;;;2.15;;
9661;SDS011;24982;52.344;12.990;2023-09-19T12:21:37;4.03;;;2.00;;
9661;SDS011;24982;52.344;12.990;2023-09-19T12:24:40;2.92;;;1.70;;
9661;SDS011;24982;52.344;12.990;2023-09-19T12:27:44;5.43;;;2.20;;
9661;SDS011;24982;52.344;12.990;2023-09-19T12:30:47;3.58;;;1.80;;
9661;SDS011;24982;52.344;12.990;2023-09-19T12:33:54;2.10;;;1.90;;
9661;SDS011;24982;52.344;12.990;2023-09-19T12:37:09;4.57;;;1.85;;
9661;SDS011;24982;52.344;12.990;2023-09-19T12:40:21;3.28;;;1.98;;
9661;SDS011;24982;52.344;12.990;2023-09-19T12:43:27;5.07;;;2.15;;
9661;SDS011;24982;52.344;12.990;2023-09-19T12:46:32;3.35;;;1.90;;
9661;SDS011;24982;52.344;12.990;2023-09-19T12:49:41;3.28;;;2.00;;
9661;SDS011;24982;52.344;12.990;2023-09-19T12:53:24;4.50;;;2.10;;
9661;SDS011;24982;52.344;12.990;2023-09-19T12:56:29;3.38;;;1.90;;
9661;SDS011;24982;52.344;12.990;2023-09-19T12:59:41;4.00;;;1.85;;
9661;SDS011;24982;52.344;12.990;2023-09-19T13:06:34;5.82;;;2.10;;
9661;SDS011;24982;52.344;12.990;2023-09-19T13:09:38;3.55;;;2.05;;
9661;SDS011;24982;52.344;12.990;2023-09-19T13:12:41;3.85;;;2.03;;
9661;SDS011;24982;52.344;12.990;2023-09-19T13:15:51;3.33;;;1.75;;
9661;SDS011;24982;52.344;12.990;2023-09-19T13:18:54;2.70;;;2.20;;
9661;SDS011;24982;52.344;12.990;2023-09-19T13:21:59;5.40;;;2.00;;
9661;SDS011;24982;52.344;12.990;2023-09-19T13:25:01;3.55;;;1.95;;
9661;SDS011;24982;52.344;12.990;2023-09-19T13:28:04;2.80;;;2.15;;
9661;SDS011;24982;52.344;12.990;2023-09-19T13:31:06;2.45;;;1.90;;
9661;SDS011;24982;52.344;12.990;2023-09-19T13:34:09;3.63;;;1.80;;
9661;SDS011;24982;52.344;12.990;2023-09-19T13:37:12;3.70;;;2.05;;
9661;SDS011;24982;52.344;12.990;2023-09-19T13:40:16;5.22;;;2.10;;
9661;SDS011;24982;52.344;12.990;2023-09-19T13:43:18;3.50;;;2.10;;
9661;SDS011;24982;52.344;12.990;2023-09-19T13:46:20;3.92;;;2.15;;
9661;SDS011;24982;52.344;12.990;2023-09-19T13:49:25;4.07;;;2.20;;
9661;SDS011;24982;52.344;12.990;2023-09-19T13:52:30;6.30;;;2.20;;
9661;SDS011;24982;52.344;12.990;2023-09-19T13:55:32;5.18;;;2.00;;
9661;SDS011;24982;52.344;12.990;2023-09-19T13:58:34;3.63;;;1.88;;
9661;SDS011;24982;52.344;12.990;2023-09-19T14:01:36;5.53;;;2.22;;
9661;SDS011;24982;52.344;12.990;2023-09-19T14:04:37;2.95;;;1.90;;
9661;SDS011;24982;52.344;12.990;2023-09-19T14:07:41;5.20;;;2.10;;
9661;SDS011;24982;52.344;12.990;2023-09-19T14:10:43;12.48;;;2.35;;
9661;SDS011;24982;52.344;12.990;2023-09-19T14:13:44;2.17;;;1.90;;
9661;SDS011;24982;52.344;12.990;2023-09-19T14:16:48;4.15;;;2.20;;
9661;SDS011;24982;52.344;12.990;2023-09-19T14:19:51;4.72;;;2.00;;
9661;SDS011;24982;52.344;12.990;2023-09-19T14:22:54;3.83;;;2.00;;
9661;SDS011;24982;52.344;12.990;2023-09-19T14:25:56;2.28;;;1.90;;
9661;SDS011;24982;52.344;12.990;2023-09-19T14:29:01;4.80;;;2.50;;
9661;SDS011;24982;52.344;12.990;2023-09-19T14:32:04;3.65;;;2.28;;
9661;SDS011;24982;52.344;12.990;2023-09-19T14:35:07;3.53;;;1.92;;
9661;SDS011;24982;52.344;12.990;2023-09-19T14:38:12;3.65;;;2.28;;
9661;SDS011;24982;52.344;12.990;2023-09-19T14:41:14;4.72;;;2.10;;
9661;SDS011;24982;52.344;12.990;2023-09-19T14:44:16;5.28;;;2.30;;
9661;SDS011;24982;52.344;12.990;2023-09-19T14:47:18;3.72;;;2.30;;
9661;SDS011;24982;52.344;12.990;2023-09-19T14:50:20;4.28;;;1.98;;
9661;SDS011;24982;52.344;12.990;2023-09-19T14:53:24;5.60;;;2.08;;
9661;SDS011;24982;52.344;12.990;2023-09-19T14:56:26;6.90;;;2.20;;
9661;SDS011;24982;52.344;12.990;2023-09-19T14:59:30;3.53;;;2.50;;
9661;SDS011;24982;52.344;12.990;2023-09-19T15:02:33;3.90;;;2.50;;
9661;SDS011;24982;52.344;12.990;2023-09-19T15:05:35;5.15;;;2.60;;
9661;SDS011;24982;52.344;12.990;2023-09-19T15:08:38;3.53;;;2.55;;
9661;SDS011;24982;52.344;12.990;2023-09-19T15:11:40;4.10;;;2.25;;
9661;SDS011;24982;52.344;12.990;2023-09-19T15:14:42;3.28;;;2.20;;
9661;SDS011;24982;52.344;12.990;2023-09-19T15:17:44;4.47;;;2.50;;
9661;SDS011;24982;52.344;12.990;2023-09-19T15:20:47;7.18;;;2.63;;
9661;SDS011;24982;52.344;12.990;2023-09-19T15:23:50;4.20;;;2.40;;
9661;SDS011;24982;52.344;12.990;2023-09-19T15:26:52;4.05;;;2.70;;
9661;SDS011;24982;52.344;12.990;2023-09-19T15:29:56;6.47;;;2.58;;
9661;SDS011;24982;52.344;12.990;2023-09-19T15:32:58;7.05;;;2.72;;
9661;SDS011;24982;52.344;12.990;2023-09-19T15:36:00;5.32;;;2.50;;
9661;SDS011;24982;52.344;12.990;2023-09-19T15:39:05;3.03;;;2.60;;
9661;SDS011;24982;52.344;12.990;2023-09-19T15:42:10;6.43;;;2.45;;
9661;SDS011;24982;52.344;12.990;2023-09-19T15:45:12;3.63;;;2.45;;
9661;SDS011;24982;52.344;12.990;2023-09-19T15:48:15;6.60;;;2.75;;
9661;SDS011;24982;52.344;12.990;2023-09-19T15:51:18;3.70;;;2.25;;
9661;SDS011;24982;52.344;12.990;2023-09-19T15:54:21;6.72;;;2.55;;
9661;SDS011;24982;52.344;12.990;2023-09-19T15:57:26;4.40;;;2.30;;
9661;SDS011;24982;52.344;12.990;2023-09-19T16:00:29;4.13;;;2.50;;
9661;SDS011;24982;52.344;12.990;2023-09-19T16:03:30;4.80;;;2.50;;
9661;SDS011;24982;52.344;12.990;2023-09-19T16:06:33;8.75;;;2.90;;
9661;SDS011;24982;52.344;12.990;2023-09-19T16:09:36;5.28;;;2.83;;
9661;SDS011;24982;52.344;12.990;2023-09-19T16:12:38;6.47;;;2.60;;
9661;SDS011;24982;52.344;12.990;2023-09-19T16:15:41;7.70;;;2.58;;
9661;SDS011;24982;52.344;12.990;2023-09-19T16:18:45;6.97;;;2.60;;
9661;SDS011;24982;52.344;12.990;2023-09-19T16:21:48;4.68;;;2.67;;
9661;SDS011;24982;52.344;12.990;2023-09-19T16:24:51;6.00;;;2.63;;
9661;SDS011;24982;52.344;12.990;2023-09-19T16:27:53;4.28;;;2.60;;
9661;SDS011;24982;52.344;12.990;2023-09-19T16:30:57;5.10;;;2.88;;
9661;SDS011;24982;52.344;12.990;2023-09-19T16:33:59;4.00;;;2.75;;
9661;SDS011;24982;52.344;12.990;2023-09-19T16:37:01;4.95;;;2.65;;
9661;SDS011;24982;52.344;12.990;2023-09-19T16:40:05;4.15;;;2.85;;
9661;SDS011;24982;52.344;12.990;2023-09-19T16:43:09;2.60;;;2.40;;
9661;SDS011;24982;52.344;12.990;2023-09-19T16:46:12;6.93;;;2.50;;
9661;SDS011;24982;52.344;12.990;2023-09-19T16:49:16;4.22;;;2.75;;
9661;SDS011;24982;52.344;12.990;2023-09-19T16:52:18;2.90;;;2.60;;
9661;SDS011;24982;52.344;12.990;2023-09-19T16:55:21;3.92;;;2.65;;
9661;SDS011;24982;52.344;12.990;2023-09-19T16:58:23;4.63;;;2.40;;
9661;SDS011;24982;52.344;12.990;2023-09-19T17:01:25;4.20;;;2.92;;
9661;SDS011;24982;52.344;12.990;2023-09-19T17:04:27;3.78;;;2.65;;
9661;SDS011;24982;52.344;12.990;2023-09-19T17:07:31;6.05;;;2.90;;
9661;SDS011;24982;52.344;12.990;2023-09-19T17:13:38;6.65;;;2.60;;
9661;SDS011;24982;52.344;12.990;2023-09-19T17:16:40;4.38;;;2.60;;
9661;SDS011;24982;52.344;12.990;2023-09-19T17:19:43;3.72;;;2.70;;
9661;SDS011;24982;52.344;12.990;2023-09-19T17:22:45;6.22;;;2.72;;
9661;SDS011;24982;52.344;12.990;2023-09-19T17:25:48;3.03;;;2.35;;
9661;SDS011;24982;52.344;12.990;2023-09-19T17:28:50;4.70;;;2.53;;
9661;SDS011;24982;52.344;12.990;2023-09-19T17:31:53;3.80;;;2.45;;
9661;SDS011;24982;52.344;12.990;2023-09-19T17:34:55;7.22;;;2.90;;
9661;SDS011;24982;52.344;12.990;2023-09-19T17:37:58;5.35;;;2.35;;
9661;SDS011;24982;52.344;12.990;2023-09-19T17:41:02;8.52;;;2.50;;
9661;SDS011;24982;52.344;12.990;2023-09-19T17:44:04;4.90;;;2.58;;
9661;SDS011;24982;52.344;12.990;2023-09-19T17:47:06;5.40;;;2.63;;
9661;SDS011;24982;52.344;12.990;2023-09-19T17:50:08;4.50;;;2.40;;
9661;SDS011;24982;52.344;12.990;2023-09-19T17:53:12;5.95;;;2.60;;
9661;SDS011;24982;52.344;12.990;2023-09-19T17:56:16;6.07;;;2.58;;
9661;SDS011;24982;52.344;12.990;2023-09-19T17:59:18;4.32;;;2.60;;
9661;SDS011;24982;52.344;12.990;2023-09-19T18:02:20;5.95;;;3.00;;
9661;SDS011;24982;52.344;12.990;2023-09-19T18:05:23;3.53;;;2.53;;
9661;SDS011;24982;52.344;12.990;2023-09-19T18:08:26;2.95;;;2.28;;
9661;SDS011;24982;52.344;12.990;2023-09-19T18:11:29;4.75;;;2.60;;
9661;SDS011;24982;52.344;12.990;2023-09-19T18:14:31;4.10;;;2.72;;
9661;SDS011;24982;52.344;12.990;2023-09-19T18:17:33;3.97;;;2.65;;
9661;SDS011;24982;52.344;12.990;2023-09-19T18:20:36;6.22;;;2.45;;
9661;SDS011;24982;52.344;12.990;2023-09-19T18:23:40;3.83;;;2.38;;
9661;SDS011;24982;52.344;12.990;2023-09-19T18:26:43;4.43;;;2.00;;
9661;SDS011;24982;52.344;12.990;2023-09-19T18:29:45;3.83;;;2.40;;
9661;SDS011;24982;52.344;12.990;2023-09-19T18:32:47;6.13;;;2.45;;
9661;SDS011;24982;52.344;12.990;2023-09-19T18:35:50;4.07;;;2.17;;
9661;SDS011;24982;52.344;12.990;2023-09-19T18:38:52;4.05;;;2.50;;
9661;SDS011;24982;52.344;12.990;2023-09-19T18:41:55;3.33;;;2.15;;
9661;SDS011;24982;52.344;12.990;2023-09-19T18:44:57;5.68;;;2.35;;
9661;SDS011;24982;52.344;12.990;2023-09-19T18:48:00;3.08;;;2.08;;
9661;SDS011;24982;52.344;12.990;2023-09-19T18:51:05;5.18;;;2.63;;
9661;SDS011;24982;52.344;12.990;2023-09-19T18:54:07;4.65;;;2.38;;
9661;SDS011;24982;52.344;12.990;2023-09-19T18:57:11;2.30;;;2.10;;